METAR Data
IDs: Format: Raw Decoded Include TAF

Data at: 1554 UTC 21 Sep 2018

KPTN 211544Z AUTO 16004KT 10SM SCT021 SCT034 BKN044 30/26 A3005 RMK AO2
KPTN 211522Z AUTO VRB03KT 10SM BKN021 BKN028 31/27 A3005 RMK AO2
KPTN 211456Z AUTO 10006KT 10SM FEW019 SCT034 30/26 A3005 RMK AO2 SLP176 T03000261 51008
KPTN 211356Z AUTO 10005KT 6SM BR CLR 28/26 A3005 RMK AO2 SLP176 T02830261
KPTN 211256Z AUTO 08004KT 10SM CLR 27/26 A3004 RMK AO2 SLP174 T02670261
KPTN 211237Z AUTO 07003KT 10SM FEW023 26/26 A3004 RMK AO2
KPTN 211156Z AUTO 09003KT 10SM BKN023 BKN028 BKN035 25/25 A3003 RMK AO2 SLP168 70015 T02500250 10250 20244 51009
KPTN 211147Z AUTO 08004KT 10SM BKN023 25/25 A3002 RMK AO2
KPTN 211056Z AUTO 00000KT 10SM FEW025 24/24 A3001 RMK AO2 SLP163 T02440244
KPTN 210956Z AUTO 00000KT 10SM CLR 24/24 A3000 RMK AO2 SLP159 T02440244
KPTN 210856Z AUTO 10003KT 10SM CLR 25/24 A3000 RMK AO2 SLP158 T02500244 56009
KPTN 210756Z AUTO 10003KT 10SM FEW026 25/24 A3000 RMK AO2 SLP160 T02500244
KPTN 210656Z AUTO 00000KT 10SM FEW025 25/24 A3001 RMK AO2 SLP163 T02500244
KPTN 210556Z AUTO 00000KT 10SM CLR 25/24 A3002 RMK AO2 SLP167 T02500244 10272 20244 403280239 50002
KPTN 210456Z AUTO 00000KT 10SM CLR 25/24 A3003 RMK AO2 SLP170 T02500244
KPTN 210356Z AUTO 00000KT 10SM CLR 25/24 A3003 RMK AO2 SLP171 T02500244
KPTN 210256Z AUTO 18003KT 10SM CLR 25/24 A3002 RMK AO2 SLP165 T02500244 53014
KPTN 210156Z AUTO 09003KT 10SM CLR 25/24 A3000 RMK AO2 SLP159 T02500244
KPTN 210056Z AUTO 10005KT 10SM BKN037 BKN046 27/25 A2999 RMK AO2 SLP155 T02670250
KPTN 202356Z AUTO 06004KT 10SM BKN039 OVC046 27/26 A2997 RMK AO2 LTG DSNT E SLP151 60015 T02720256 10328 20272 53004
KPTN 202256Z AUTO 00000KT 10SM BKN039 BKN050 28/27 A2997 RMK AO2 TSB2157E10B14E29RAE01 SLP149 P0000 T02830272
KPTN 202240Z AUTO 00000KT 10SM SCT039 BKN095 28/27 A2997 RMK AO2 LTG DSNT N TSB2157E10B14E29RAE01 P0000
KPTN 202214Z AUTO 00000KT 10SM VCTS FEW050 SCT110 28/26 A2997 RMK AO2 LTG DSNT N AND NE TSB2157E10B14RAE01 P0000
KPTN 202208Z AUTO 26005KT 10SM VCTS FEW037 SCT050 BKN090 28/26 A2997 RMK AO2 LTG DSNT N AND NE TSB2157RAE01 P0000
KPTN 202156Z AUTO 26006KT 10SM -RA SCT032 BKN048 OVC090 28/26 A2996 RMK AO2 LTG DSNT N AND NE TSE23RAB30 SLP147 P0015 T02780261
KPTN 202130Z AUTO 21013G16KT 9SM -RA BKN029 BKN034 OVC110 29/26 A2997 RMK AO2 LTG DSNT N TSE23RAB30 P0001
KPTN 202056Z AUTO 17006KT 10SM VCTS SCT110 30/26 A2996 RMK AO2 LTG DSNT NW TSB56RAB17E27 SLP146 P0000 60000 T03000256 56018
KPTN 201956Z AUTO 19005KT 10SM FEW034 SCT050 BKN110 33/26 A2998 RMK AO2 SLP152 T03280256
KPTN 201856Z AUTO 14007KT 10SM FEW037 33/25 A2999 RMK AO2 SLP156 T03280250
KPTN 201756Z AUTO 10006KT 10SM BKN033 BKN041 32/25 A3002 RMK AO2 SLP165 T03220250 10322 20244 58007
KPTN 201656Z AUTO 12004KT 10SM SCT028 SCT035 31/26 A3003 RMK AO2 SLP170 T03110256
KPTN 201640Z AUTO 14006KT 10SM SCT026 31/26 A3003 RMK AO2
KPTN 201615Z AUTO 13004KT 10SM BKN026 31/26 A3004 RMK AO2
KPTN 201556Z AUTO 08005KT 10SM FEW026 31/26 A3004 RMK AO2 SLP172 T03060256
KPTN 201456Z AUTO 10004KT 10SM CLR 29/26 A3004 RMK AO2 SLP171 T02940256 52014
KPTN 201356Z AUTO 09003KT 10SM SCT060 BKN085 26/25 A3002 RMK AO2 SLP167 T02610250
KPTN 201256Z AUTO 00000KT 7SM SCT070 25/25 A3001 RMK AO2 SLP162 T02500250
KPTN 201209Z AUTO 00000KT 5SM BR FEW026 24/24 A3000 RMK AO2
KPTN 201156Z AUTO 00000KT 5SM BR FEW006 BKN026 24/24 A2999 RMK AO2 SLP157 70046 T02440239 10250 20239 53005
KPTN 201146Z AUTO 00000KT 5SM BR FEW003 OVC026 24/24 A2999 RMK AO2
KPTN 201133Z AUTO 00000KT 2SM BR FEW003 BKN024 24/24 A2999 RMK AO2
KPTN 201129Z AUTO 00000KT 1SM BR FEW003 BKN022 24/24 A2999 RMK AO2
KPTN 201121Z AUTO 15004KT 3/4SM BR SCT003 SCT022 24/24 A2999 RMK AO2
KPTN 201113Z AUTO 00000KT 1 3/4SM BR FEW004 24/24 A2998 RMK AO2
KPTN 201056Z AUTO 18003KT 3SM BR FEW004 24/24 A2998 RMK AO2 SLP152 T02390239
KPTN 201031Z AUTO 20003KT 2 1/2SM BR FEW004 24/24 A2998 RMK AO2
KPTN 200956Z AUTO 00000KT 4SM BR CLR 24/24 A2997 RMK AO2 SLP149 T02440239
KPTN 200856Z AUTO 07004KT 5SM BR CLR 24/24 A2997 RMK AO2 SLP148 T02390239 58001
KPTN 200756Z AUTO 00000KT 3SM BR CLR 24/24 A2998 RMK AO2 SLP151 T02440244
KPTN 200709Z AUTO 00000KT 4SM BR FEW003 24/24 A2997 RMK AO2
KPTN 200656Z AUTO 00000KT 2SM BR FEW003 24/24 A2997 RMK AO2 SLP150 T02390239
KPTN 200556Z AUTO 00000KT 5SM BR CLR 24/24 A2997 RMK AO2 SLP150 60000 T02440244 10256 20244 403440239 50003
KPTN 200456Z AUTO 00000KT 7SM CLR 25/24 A2997 RMK AO2 SLP150 T02500244
KPTN 200356Z AUTO 00000KT 7SM CLR 24/24 A2997 RMK AO2 SLP149 T02440244